Time;durP1;ratioP1;P1;durP2;ratioP2;P2;SDS_P1;SDS_P2;PMS_P1;PMS_P2;Temp;Humidity;BMP_temperature;BMP_pressure;BME280_temperature;BME280_humidity;BME280_pressure;Samples;Min_cycle;Max_cycle;Signal;HPM_P1;HPM_P2
2022/07/06 00:02:13;;;;;;;;;;;;;;;15.52;78.38;99547.56;4995801;28;873;-73
2022/07/06 00:04:40;;;;;;;;;;;;;;;15.50;78.80;99543.66;5013393;28;772;-73
2022/07/06 00:07:06;;;;;;;;;;;;;;;15.57;78.63;99542.66;5013367;28;1054;-74
2022/07/06 00:09:36;;;;;;;;;;;;;;;15.63;78.57;99538.88;5013236;28;814;-73
2022/07/06 00:12:03;;;;;;;;;;;;;;;15.61;78.17;99537.78;5013244;28;902;-73
2022/07/06 00:14:30;;;;;;;;;;;;;;;15.49;78.34;99531.75;5013070;28;1237;-74
2022/07/06 00:16:56;;;;;;;;;;;;;;;15.47;78.24;99539.00;5013389;28;839;-74
2022/07/06 00:19:23;;;;;;;;;;;;;;;15.57;77.69;99531.53;4995412;28;850;-74
2022/07/06 00:21:49;;;;;;;;;;;;;;;15.63;77.20;99529.75;5013384;28;919;-74
2022/07/06 00:24:17;;;;;;;;;;;;;;;15.74;76.46;99527.44;5013280;28;810;-73
2022/07/06 00:26:45;;;;;;;;;;;;;;;15.70;76.35;99521.97;5012961;28;897;-74
2022/07/06 00:29:11;;;;;;;;;;;;;;;15.55;77.32;99518.03;5013126;28;779;-74
2022/07/06 00:34:25;;;;;;;;;;;;;;;15.27;78.29;99526.00;4990314;28;1362;-74
2022/07/06 00:36:51;;;;;;;;;;;;;;;15.08;79.34;99507.47;4993166;28;788;-74
2022/07/06 00:39:28;;;;;;;;;;;;;;;;;;;;;
2022/07/06 00:42:01;;;;;;;;;;;;;;;14.92;80.35;99508.31;4993339;28;746;-76
2022/07/06 00:44:28;;;;;;;;;;;;;;;14.84;80.59;99502.16;4975246;28;1460;-76
2022/07/06 00:47:05;;;;;;;;;;;;;;;;;;;;;
2022/07/06 00:52:17;;;;;;;;;;;;;;;14.75;81.84;99496.44;4993291;28;720;-74
2022/07/06 00:54:45;;;;;;;;;;;;;;;14.80;81.87;99495.13;4975413;28;1297;-74
2022/07/06 00:57:12;;;;;;;;;;;;;;;14.67;82.53;99492.28;4975219;28;1433;-74
2022/07/06 00:59:38;;;;;;;;;;;;;;;14.72;82.86;99491.75;4975347;28;1508;-75
2022/07/06 01:02:05;;;;;;;;;;;;;;;14.93;82.70;99492.38;4975587;28;1418;-74
2022/07/06 01:04:32;;;;;;;;;;;;;;;15.00;82.49;99495.75;4992981;28;823;-75
2022/07/06 01:06:59;;;;;;;;;;;;;;;14.97;82.54;99495.84;4975255;28;1131;-77
2022/07/06 01:09:25;;;;;;;;;;;;;;;14.92;82.62;99496.41;4975375;28;1283;-74
2022/07/06 01:11:52;;;;;;;;;;;;;;;15.04;83.04;99496.44;4975024;28;1914;-75
2022/07/06 01:14:20;;;;;;;;;;;;;;;15.16;83.57;99491.34;4993040;28;870;-75
2022/07/06 01:17:06;;;;;;;;;;;;;;;15.28;83.80;99493.38;4976273;28;1067;-74
2022/07/06 01:19:34;;;;;;;;;;;;;;;15.38;83.39;99486.72;4993507;28;835;-75
2022/07/06 01:22:04;;;;;;;;;;;;;;;15.47;83.10;99486.84;4992868;28;807;-77
2022/07/06 01:24:30;;;;;;;;;;;;;;;15.50;82.76;99487.97;4993284;28;850;-78
2022/07/06 01:35:21;;;;;;;;;;;;;;;15.63;80.78;99485.97;4993103;28;1179;-77
2022/07/06 01:37:57;;;;;;;;;;;;;;;15.57;80.81;99482.16;4992564;28;858;-78
2022/07/06 01:40:23;;;;;;;;;;;;;;;15.57;80.39;99475.81;4974826;28;1303;-78
2022/07/06 01:42:50;;;;;;;;;;;;;;;15.58;79.64;99480.19;4971477;28;1205;-77
2022/07/06 01:45:16;;;;;;;;;;;;;;;15.48;79.55;99485.59;4971630;28;972;-74
2022/07/06 01:47:43;;;;;;;;;;;;;;;15.50;78.77;99488.72;4971441;28;812;-73
2022/07/06 01:50:13;;;;;;;;;;;;;;;15.53;78.95;99489.84;4971655;28;1898;-75
2022/07/06 01:52:40;;;;;;;;;;;;;;;15.51;80.12;99483.94;4955446;28;1196;-74
2022/07/06 01:55:06;;;;;;;;;;;;;;;15.49;81.80;99478.03;4971287;28;885;-77
2022/07/06 01:57:36;;;;;;;;;;;;;;;15.45;82.99;99480.16;4972174;28;815;-73
2022/07/06 02:00:25;;;;;;;;;;;;;;;15.42;84.00;99470.66;4955297;28;1316;-78
2022/07/06 02:03:11;;;;;;;;;;;;;;;15.36;84.87;99472.44;4945785;28;1397;-77
2022/07/06 02:05:38;;;;;;;;;;;;;;;15.31;85.37;99470.22;4971624;28;1373;-77
2022/07/06 02:08:04;;;;;;;;;;;;;;;15.26;86.28;99474.34;4971300;28;977;-76
2022/07/06 02:10:35;;;;;;;;;;;;;;;15.29;87.63;99473.44;4952635;28;1886;-74
2022/07/06 02:13:06;;;;;;;;;;;;;;;15.31;88.75;99471.00;4974708;28;1042;-75
2022/07/06 02:15:33;;;;;;;;;;;;;;;15.28;89.82;99471.13;4958567;28;1162;-73
2022/07/06 02:17:59;;;;;;;;;;;;;;;15.23;90.52;99468.88;4958509;28;1126;-74
2022/07/06 02:20:26;;;;;;;;;;;;;;;15.16;90.94;99469.84;4986651;28;835;-74
2022/07/06 02:23:17;;;;;;;;;;;;;;;;;;;;;
2022/07/06 02:25:46;;;;;;;;;;;;;;;15.08;90.46;99465.72;4985161;28;987;-73
2022/07/06 02:31:15;;;;;;;;;;;;;;;15.02;90.18;99464.69;4995650;28;1956;-77
2022/07/06 02:33:45;;;;;;;;;;;;;;;15.01;89.27;99466.69;4982192;28;1405;-70
2022/07/06 02:36:17;;;;;;;;;;;;;;;14.99;87.38;99466.34;5015186;28;823;-71
2022/07/06 02:38:43;;;;;;;;;;;;;;;14.99;86.48;99485.06;4997482;28;1230;-73
2022/07/06 02:47:14;;;;;;;;;;;;;;;14.50;93.74;99480.38;5014942;28;637;-77
2022/07/06 02:49:40;;;;;;;;;;;;;;;14.38;94.71;99481.09;4997567;28;1201;-74
2022/07/06 02:52:07;;;;;;;;;;;;;;;14.24;95.71;99483.00;4997466;28;1330;-72
2022/07/06 02:54:33;;;;;;;;;;;;;;;14.08;96.66;99483.81;4997532;28;1078;-73
2022/07/06 03:09:30;;;;;;;;;;;;;;;13.90;97.52;99483.44;5015671;28;606;-77
2022/07/06 03:12:06;;;;;;;;;;;;;;;13.93;97.50;99477.00;5015076;28;1902;-76
2022/07/06 03:14:59;;;;;;;;;;;;;;;13.89;97.16;99474.34;4974747;28;1467;-75
2022/07/06 03:17:35;;;;;;;;;;;;;;;;;;;;;
2022/07/06 03:20:11;;;;;;;;;;;;;;;13.94;96.55;99473.03;4975003;28;1186;-77
2022/07/06 03:22:41;;;;;;;;;;;;;;;14.09;95.79;99471.47;4973636;28;799;-81
2022/07/06 03:25:23;;;;;;;;;;;;;;;;;;;;;
2022/07/06 03:28:23;;;;;;;;;;;;;;;14.38;95.63;99464.41;4974696;28;673;-75
2022/07/06 03:30:57;;;;;;;;;;;;;;;14.56;95.24;99467.53;4973285;28;1891;-75
2022/07/06 03:33:24;;;;;;;;;;;;;;;14.72;94.47;99469.47;4973288;28;1265;-74
2022/07/06 03:36:00;;;;;;;;;;;;;;;14.81;93.17;99466.88;4957068;28;1344;-75
2022/07/06 10:33:48;;;;;;;;;;;;;;;29.65;35.32;99406.34;5360692;23;1681;-65
2022/07/06 10:36:15;;;;;;;;;;;;;;;30.20;36.43;99402.22;4995536;28;890;-65
2022/07/06 10:38:48;;;;;;;;;;;;;;;31.49;36.18;99392.81;4994851;28;1299;-64
2022/07/06 10:41:15;;;;;;;;;;;;;;;32.50;33.70;99398.56;4995483;28;857;-65
2022/07/06 10:43:46;;;;;;;;;;;;;;;33.32;32.02;99391.34;4995471;28;882;-65
2022/07/06 10:46:20;;;;;;;;;;;;;;;33.84;31.57;99382.53;4995386;28;858;-65
2022/07/06 10:48:47;;;;;;;;;;;;;;;34.19;30.65;99380.75;4995581;28;798;-65
2022/07/06 10:51:23;;;;;;;;;;;;;;;33.62;31.61;99386.97;4995653;28;1903;-66
2022/07/06 10:53:56;;;;;;;;;;;;;;;32.23;32.45;99392.34;4995117;28;835;-65
2022/07/06 10:56:44;;;;;;;;;;;;;;;30.86;33.99;99387.06;4993979;28;1200;-65
2022/07/06 11:14:24;;;;;;;;;;;;;;;32.54;32.93;99378.22;4994886;28;609;-65
2022/07/06 11:16:50;;;;;;;;;;;;;;;33.91;31.69;99368.19;4993523;28;1185;-66
2022/07/06 11:19:25;;;;;;;;;;;;;;;35.12;30.07;99360.91;4994785;28;862;-65
2022/07/06 11:21:58;;;;;;;;;;;;;;;35.66;29.41;99357.63;4994708;28;827;-66
2022/07/06 11:24:29;;;;;;;;;;;;;;;36.03;29.17;99354.94;4994628;28;886;-66
2022/07/06 11:26:56;;;;;;;;;;;;;;;36.11;27.96;99362.09;4995039;28;803;-65
2022/07/06 11:29:28;;;;;;;;;;;;;;;34.65;28.32;99357.59;4994851;28;881;-66
2022/07/06 11:31:55;;;;;;;;;;;;;;;33.23;30.62;99363.28;4994511;28;1886;-66
2022/07/06 11:34:22;;;;;;;;;;;;;;;32.20;32.21;99356.34;4999952;28;1278;-66
2022/07/06 11:36:49;;;;;;;;;;;;;;;31.49;33.64;99353.63;5014022;28;901;-65
2022/07/06 11:39:16;;;;;;;;;;;;;;;31.74;33.58;99351.09;5013900;28;819;-65
2022/07/06 11:44:45;;;;;;;;;;;;;;;34.94;29.84;99351.47;5013261;28;609;-66
2022/07/06 11:47:12;;;;;;;;;;;;;;;35.80;28.35;99355.94;5013797;28;795;-66
2022/07/06 11:49:39;;;;;;;;;;;;;;;36.32;28.43;99352.31;5014102;28;869;-66
2022/07/06 11:52:10;;;;;;;;;;;;;;;36.86;27.64;99346.56;5013637;28;1979;-67
2022/07/06 11:54:37;;;;;;;;;;;;;;;37.19;26.78;99347.03;5013755;28;827;-65
2022/07/06 11:57:07;;;;;;;;;;;;;;;37.49;26.62;99344.97;5013705;28;803;-66
2022/07/06 11:59:34;;;;;;;;;;;;;;;37.86;26.18;99336.22;5013567;28;807;-65
2022/07/06 12:02:08;;;;;;;;;;;;;;;38.12;25.49;99331.69;5013429;28;894;-65
2022/07/06 12:04:36;;;;;;;;;;;;;;;38.75;24.11;99329.75;5013529;28;822;-65
2022/07/06 12:07:06;;;;;;;;;;;;;;;38.95;23.72;99332.59;5013521;28;838;-65
2022/07/06 12:09:33;;;;;;;;;;;;;;;39.55;23.39;99329.50;5013334;28;815;-64
2022/07/06 12:12:04;;;;;;;;;;;;;;;39.78;22.39;99326.00;5013483;28;1957;-64
2022/07/06 12:14:40;;;;;;;;;;;;;;;40.32;22.02;99321.59;5013270;28;799;-63
2022/07/06 12:17:09;;;;;;;;;;;;;;;40.71;22.36;99321.13;5013272;28;861;-64
2022/07/06 12:19:42;;;;;;;;;;;;;;;40.85;21.66;99320.56;5013248;28;838;-63
2022/07/06 12:22:09;;;;;;;;;;;;;;;40.77;21.56;99315.75;5013167;28;855;-63
2022/07/06 12:24:37;;;;;;;;;;;;;;;41.22;21.40;99312.75;5013210;28;863;-63
2022/07/06 12:27:40;;;;;;;;;;;;;;;41.74;20.63;99318.69;5013117;28;791;-63
2022/07/06 12:30:10;;;;;;;;;;;;;;;41.47;20.00;99310.56;5012884;28;1874;-63
2022/07/06 12:32:36;;;;;;;;;;;;;;;41.00;19.53;99312.09;5013260;28;873;-64
2022/07/06 12:35:04;;;;;;;;;;;;;;;40.46;20.30;99307.28;5012874;28;1468;-64
2022/07/06 12:37:32;;;;;;;;;;;;;;;40.96;20.54;99306.06;5012909;28;897;-63
2022/07/06 12:39:58;;;;;;;;;;;;;;;40.71;19.70;99303.75;5012903;28;865;-64
2022/07/06 12:42:24;;;;;;;;;;;;;;;40.65;19.90;99296.84;5012829;28;850;-65
2022/07/06 12:44:51;;;;;;;;;;;;;;;40.61;19.55;99289.41;5012970;28;877;-64
2022/07/06 12:47:19;;;;;;;;;;;;;;;41.14;20.09;99296.97;5012711;28;846;-65
2022/07/06 12:49:46;;;;;;;;;;;;;;;41.37;18.88;99287.50;5012754;28;846;-64
2022/07/06 12:52:20;;;;;;;;;;;;;;;41.05;19.64;99292.81;5012586;28;1914;-64
2022/07/06 12:54:50;;;;;;;;;;;;;;;40.16;19.67;99280.75;5012615;28;846;-64
2022/07/06 12:57:18;;;;;;;;;;;;;;;39.94;20.14;99285.09;5012531;28;925;-64
2022/07/06 12:59:54;;;;;;;;;;;;;;;39.99;20.66;99283.97;5012366;28;866;-65
2022/07/06 13:02:32;;;;;;;;;;;;;;;39.97;20.85;99281.72;5012419;28;794;-64
2022/07/06 13:05:00;;;;;;;;;;;;;;;39.97;21.40;99281.72;5012460;28;948;-65
2022/07/06 13:07:27;;;;;;;;;;;;;;;39.66;21.16;99281.81;5012484;28;862;-65
2022/07/06 13:09:54;;;;;;;;;;;;;;;39.04;21.97;99281.91;5012405;28;850;-66
2022/07/06 13:12:22;;;;;;;;;;;;;;;39.69;21.29;99276.91;5012459;28;1890;-66
2022/07/06 13:14:49;;;;;;;;;;;;;;;39.58;21.28;99278.38;5012188;28;870;-66
2022/07/06 13:17:16;;;;;;;;;;;;;;;38.03;22.73;99279.75;5012215;28;807;-66
2022/07/06 13:19:42;;;;;;;;;;;;;;;37.01;23.34;99272.81;4994585;28;1391;-66
2022/07/06 13:22:12;;;;;;;;;;;;;;;37.88;22.83;99278.72;5012197;28;827;-65
2022/07/06 13:24:39;;;;;;;;;;;;;;;38.15;21.70;99272.00;5012078;28;806;-65
2022/07/06 13:27:06;;;;;;;;;;;;;;;38.96;21.48;99276.31;5012112;28;811;-65
2022/07/06 13:32:35;;;;;;;;;;;;;;;40.44;19.73;99268.75;5012099;28;1042;-66
2022/07/06 13:35:02;;;;;;;;;;;;;;;40.09;21.94;99263.63;5012284;28;1259;-66
2022/07/06 13:37:28;;;;;;;;;;;;;;;39.73;23.12;99266.38;5012383;28;862;-65
2022/07/06 13:39:56;;;;;;;;;;;;;;;39.59;23.64;99271.22;4994751;28;1213;-66
2022/07/06 13:42:22;;;;;;;;;;;;;;;39.54;24.16;99266.53;5012722;28;759;-65
2022/07/06 13:44:49;;;;;;;;;;;;;;;39.08;24.27;99268.50;4994365;28;1562;-66
2022/07/06 13:47:16;;;;;;;;;;;;;;;38.96;24.32;99267.66;5012021;28;823;-66
2022/07/06 13:49:43;;;;;;;;;;;;;;;38.32;24.57;99268.91;5011914;28;909;-65
2022/07/06 13:52:10;;;;;;;;;;;;;;;38.24;25.85;99265.47;5012404;28;1969;-66
2022/07/06 13:54:36;;;;;;;;;;;;;;;38.06;25.43;99259.13;5011717;28;826;-66
2022/07/06 13:57:04;;;;;;;;;;;;;;;37.88;25.89;99261.41;5012237;28;842;-66
2022/07/06 13:59:30;;;;;;;;;;;;;;;37.80;26.54;99250.03;5011877;28;795;-65
2022/07/06 14:01:56;;;;;;;;;;;;;;;37.65;26.24;99255.34;5011676;28;811;-65
2022/07/06 14:04:23;;;;;;;;;;;;;;;37.24;27.55;99250.16;5011670;28;885;-65
2022/07/06 14:06:49;;;;;;;;;;;;;;;36.94;27.11;99248.56;5013424;28;807;-65
2022/07/06 14:09:16;;;;;;;;;;;;;;;36.31;27.91;99255.84;5015630;28;1222;-66
2022/07/06 14:11:43;;;;;;;;;;;;;;;36.24;28.83;99251.72;5015564;28;1886;-66
2022/07/06 14:14:09;;;;;;;;;;;;;;;35.95;28.68;99258.03;5015624;28;811;-66
2022/07/06 14:16:36;;;;;;;;;;;;;;;35.15;29.09;99260.03;5015498;28;866;-66
2022/07/06 14:19:02;;;;;;;;;;;;;;;34.70;30.26;99255.44;5015544;28;791;-65
2022/07/06 14:21:29;;;;;;;;;;;;;;;34.80;30.29;99250.53;4997766;28;1492;-66
2022/07/06 14:23:56;;;;;;;;;;;;;;;34.86;30.29;99251.06;5015440;28;831;-65
2022/07/06 14:26:23;;;;;;;;;;;;;;;34.60;30.72;99255.28;5015387;28;909;-65
2022/07/06 14:28:53;;;;;;;;;;;;;;;34.43;31.21;99255.19;5015242;28;926;-65
2022/07/06 14:31:19;;;;;;;;;;;;;;;33.93;31.68;99258.69;5015106;28;1882;-65
2022/07/06 14:33:46;;;;;;;;;;;;;;;33.61;32.00;99247.91;5015077;28;1222;-64
2022/07/06 14:36:14;;;;;;;;;;;;;;;32.83;33.36;99250.09;5015328;28;854;-65
2022/07/06 14:38:41;;;;;;;;;;;;;;;32.45;34.27;99247.16;5011655;28;1103;-65
2022/07/06 14:41:07;;;;;;;;;;;;;;;32.32;34.46;99242.38;5015117;28;803;-65
2022/07/06 14:43:36;;;;;;;;;;;;;;;32.44;34.67;99242.78;5015034;28;877;-65
2022/07/06 14:46:02;;;;;;;;;;;;;;;32.55;34.95;99239.59;5014982;28;799;-65
2022/07/06 14:48:30;;;;;;;;;;;;;;;32.74;34.67;99233.50;5014954;28;850;-64
2022/07/06 14:50:57;;;;;;;;;;;;;;;32.63;33.97;99246.09;5014776;28;1910;-66
2022/07/06 14:53:24;;;;;;;;;;;;;;;32.58;34.85;99246.25;5014921;28;819;-65
2022/07/06 14:55:51;;;;;;;;;;;;;;;32.57;34.57;99241.88;5014745;28;894;-66
2022/07/06 15:10:29;;;;;;;;;;;;;;;30.47;37.54;99246.94;5014817;28;1965;-65
2022/07/06 15:12:55;;;;;;;;;;;;;;;31.13;36.93;99250.72;5014423;28;850;-66
2022/07/06 15:15:22;;;;;;;;;;;;;;;31.70;35.63;99258.53;5014464;28;811;-66
2022/07/06 15:17:49;;;;;;;;;;;;;;;32.15;34.93;99248.63;5014468;28;905;-66
2022/07/06 15:20:16;;;;;;;;;;;;;;;32.34;34.31;99237.63;5014356;28;788;-66
2022/07/06 15:22:43;;;;;;;;;;;;;;;32.16;34.52;99241.59;5014317;28;811;-67
2022/07/06 15:25:09;;;;;;;;;;;;;;;32.03;33.99;99242.50;5014275;28;846;-66
2022/07/06 15:27:36;;;;;;;;;;;;;;;31.63;34.85;99254.31;5014089;28;858;-66
2022/07/06 15:30:04;;;;;;;;;;;;;;;31.18;36.40;99243.38;4996510;28;1414;-65
2022/07/06 15:32:30;;;;;;;;;;;;;;;30.99;37.24;99252.91;5014373;28;1938;-66
2022/07/06 15:34:57;;;;;;;;;;;;;;;30.79;37.49;99245.91;5013830;28;1231;-65
2022/07/06 15:37:24;;;;;;;;;;;;;;;30.50;38.54;99253.59;5014088;28;803;-66
2022/07/06 15:39:50;;;;;;;;;;;;;;;30.47;38.88;99255.50;5013981;28;818;-65
2022/07/06 15:42:18;;;;;;;;;;;;;;;30.46;38.36;99259.66;5013905;28;807;-65
2022/07/06 15:44:44;;;;;;;;;;;;;;;30.53;38.53;99261.03;5013901;28;886;-65
2022/07/06 15:47:10;;;;;;;;;;;;;;;30.55;39.05;99261.25;5013842;28;838;-65
2022/07/06 15:49:37;;;;;;;;;;;;;;;30.30;39.39;99258.72;5013842;28;823;-65
2022/07/06 15:52:04;;;;;;;;;;;;;;;29.90;40.13;99255.22;5013695;28;1903;-65
2022/07/06 15:54:30;;;;;;;;;;;;;;;29.60;40.17;99261.25;5013694;28;806;-65
2022/07/06 15:56:57;;;;;;;;;;;;;;;29.22;41.03;99261.47;5013588;28;897;-66
2022/07/06 15:59:23;;;;;;;;;;;;;;;28.80;42.11;99261.88;5013656;28;866;-65
2022/07/06 16:01:50;;;;;;;;;;;;;;;28.42;42.62;99255.50;5013530;28;822;-65
2022/07/06 16:04:16;;;;;;;;;;;;;;;28.24;43.07;99259.91;5013553;28;823;-65
2022/07/06 16:06:42;;;;;;;;;;;;;;;28.01;44.06;99256.63;5013661;28;822;-65
2022/07/06 16:09:09;;;;;;;;;;;;;;;28.23;43.79;99253.47;5013473;28;897;-65
2022/07/06 16:11:35;;;;;;;;;;;;;;;28.61;43.47;99261.19;5013375;28;1910;-65
2022/07/06 16:14:02;;;;;;;;;;;;;;;28.72;43.95;99255.34;5013429;28;834;-65
2022/07/06 16:16:29;;;;;;;;;;;;;;;28.70;44.32;99267.25;5013291;28;866;-65
2022/07/06 16:18:55;;;;;;;;;;;;;;;28.85;44.48;99258.19;4995740;28;1255;-65
2022/07/06 16:21:21;;;;;;;;;;;;;;;28.84;44.54;99261.59;5013255;28;854;-65
2022/07/06 16:23:48;;;;;;;;;;;;;;;28.68;44.80;99261.31;5013123;28;803;-65
2022/07/06 16:26:15;;;;;;;;;;;;;;;28.48;44.95;99267.56;4995511;28;1256;-65
2022/07/06 16:28:41;;;;;;;;;;;;;;;28.15;45.33;99266.00;5012702;28;818;-66
2022/07/06 16:31:08;;;;;;;;;;;;;;;27.80;46.19;99277.00;5012781;28;1941;-65
2022/07/06 16:33:36;;;;;;;;;;;;;;;27.59;47.19;99278.78;4995419;28;1157;-65
2022/07/06 16:36:07;;;;;;;;;;;;;;;27.48;47.61;99274.81;5012829;28;1502;-65
2022/07/06 16:38:34;;;;;;;;;;;;;;;27.33;47.88;99270.84;5012909;28;858;-65
2022/07/06 16:41:01;;;;;;;;;;;;;;;27.10;48.75;99279.56;5012892;28;814;-65
2022/07/06 16:43:28;;;;;;;;;;;;;;;26.77;50.12;99280.63;5012868;28;783;-65
2022/07/06 16:45:54;;;;;;;;;;;;;;;26.45;50.93;99281.06;5012697;28;846;-65
2022/07/06 16:48:21;;;;;;;;;;;;;;;26.14;52.16;99285.13;5013012;28;905;-65
2022/07/06 16:50:48;;;;;;;;;;;;;;;26.02;52.87;99292.91;5012887;28;1976;-65
2022/07/06 16:53:14;;;;;;;;;;;;;;;25.99;54.02;99288.28;5012629;28;807;-65
2022/07/06 16:55:41;;;;;;;;;;;;;;;25.99;54.80;99294.75;5012504;28;823;-65
2022/07/06 16:58:08;;;;;;;;;;;;;;;26.02;54.79;99290.09;4994997;28;1276;-64
2022/07/06 17:00:36;;;;;;;;;;;;;;;26.01;54.87;99288.53;5012523;28;858;-64
2022/07/06 17:03:03;;;;;;;;;;;;;;;25.89;55.27;99289.91;5012526;28;858;-63
2022/07/06 17:05:29;;;;;;;;;;;;;;;25.78;55.59;99290.69;5012414;28;905;-63
2022/07/06 17:07:56;;;;;;;;;;;;;;;25.65;55.93;99296.91;5012380;28;950;-63
2022/07/06 17:10:23;;;;;;;;;;;;;;;25.53;56.68;99293.34;5012332;28;1882;-63
2022/07/06 17:12:50;;;;;;;;;;;;;;;25.41;57.23;99286.16;5012253;28;861;-63
2022/07/06 17:15:17;;;;;;;;;;;;;;;25.33;57.09;99294.41;5012344;28;874;-63
2022/07/06 17:17:43;;;;;;;;;;;;;;;25.17;57.65;99300.84;5012576;28;850;-63
2022/07/06 17:20:10;;;;;;;;;;;;;;;24.94;58.75;99295.19;5012189;28;871;-63
2022/07/06 17:22:37;;;;;;;;;;;;;;;24.76;59.17;99296.50;5012164;28;831;-63
2022/07/06 17:25:04;;;;;;;;;;;;;;;24.60;59.52;99297.25;5012214;28;865;-63
2022/07/06 17:27:30;;;;;;;;;;;;;;;24.49;60.06;99305.72;4994462;28;878;-63
2022/07/06 17:29:57;;;;;;;;;;;;;;;24.36;60.15;99306.94;5012122;28;787;-63
2022/07/06 17:32:23;;;;;;;;;;;;;;;24.21;60.76;99295.84;5012171;28;1890;-63
2022/07/06 17:34:50;;;;;;;;;;;;;;;24.07;61.28;99299.69;5011909;28;1270;-63
2022/07/06 17:37:17;;;;;;;;;;;;;;;23.86;62.11;99301.16;5011941;28;890;-63
2022/07/06 17:39:44;;;;;;;;;;;;;;;23.63;63.03;99301.78;5011960;28;916;-63
2022/07/06 17:42:13;;;;;;;;;;;;;;;23.48;63.46;99308.88;5011248;28;815;-63
2022/07/06 17:44:41;;;;;;;;;;;;;;;23.33;64.08;99315.44;5012198;28;834;-63
2022/07/06 17:47:08;;;;;;;;;;;;;;;23.19;64.54;99308.72;4994199;28;1225;-63
2022/07/06 17:49:34;;;;;;;;;;;;;;;23.13;64.57;99312.72;5011829;28;815;-63
2022/07/06 17:52:01;;;;;;;;;;;;;;;23.10;65.05;99317.34;5011917;28;1914;-63
2022/07/06 17:54:28;;;;;;;;;;;;;;;23.05;65.14;99320.13;4994086;28;1323;-63
2022/07/06 17:56:54;;;;;;;;;;;;;;;23.06;64.94;99328.06;5011842;28;819;-63
2022/07/06 17:59:21;;;;;;;;;;;;;;;23.08;65.04;99325.50;5011687;28;906;-63
2022/07/06 18:01:47;;;;;;;;;;;;;;;23.06;65.26;99328.06;5011846;28;846;-62
2022/07/06 18:04:14;;;;;;;;;;;;;;;23.05;65.33;99325.75;5011679;28;870;-63
2022/07/06 18:06:40;;;;;;;;;;;;;;;23.02;65.09;99322.66;5011755;28;822;-63
2022/07/06 18:09:07;;;;;;;;;;;;;;;23.02;65.15;99328.31;5011696;28;811;-63
2022/07/06 18:11:33;;;;;;;;;;;;;;;22.98;65.29;99326.94;5011604;28;1947;-63
2022/07/06 18:14:01;;;;;;;;;;;;;;;22.98;65.27;99332.56;5011726;28;818;-63
2022/07/06 18:16:28;;;;;;;;;;;;;;;23.09;65.20;99337.59;5011784;28;799;-63
2022/07/06 18:18:55;;;;;;;;;;;;;;;23.22;64.38;99343.56;5011477;28;870;-63
2022/07/06 18:21:21;;;;;;;;;;;;;;;23.28;64.74;99344.38;5011637;28;811;-63
2022/07/06 18:23:48;;;;;;;;;;;;;;;23.21;64.65;99351.25;5011944;28;818;-63
2022/07/06 18:26:15;;;;;;;;;;;;;;;23.16;65.24;99356.84;4993901;28;1339;-63
2022/07/06 18:28:42;;;;;;;;;;;;;;;23.14;65.65;99362.22;5011781;28;811;-63
2022/07/06 18:31:08;;;;;;;;;;;;;;;23.16;65.89;99365.31;5011579;28;1944;-63
2022/07/06 18:33:35;;;;;;;;;;;;;;;23.20;66.25;99371.50;5011634;28;849;-63
2022/07/06 18:36:01;;;;;;;;;;;;;;;23.49;65.50;99369.63;4975880;28;1423;-63
2022/07/06 18:38:28;;;;;;;;;;;;;;;23.71;65.21;99378.25;4991925;28;858;-63
2022/07/06 18:40:55;;;;;;;;;;;;;;;23.87;64.92;99368.34;4992086;28;827;-63
2022/07/06 18:43:21;;;;;;;;;;;;;;;23.91;64.56;99379.41;4992035;28;842;-63
2022/07/06 18:45:50;;;;;;;;;;;;;;;23.76;65.47;99385.22;4991693;28;886;-63
2022/07/06 18:48:16;;;;;;;;;;;;;;;23.57;65.80;99382.00;4974469;28;1289;-63
2022/07/06 18:50:43;;;;;;;;;;;;;;;23.41;66.23;99387.03;4992075;28;1969;-63
2022/07/06 18:53:15;;;;;;;;;;;;;;;23.20;67.07;99388.41;4994452;28;768;-63
2022/07/06 18:55:42;;;;;;;;;;;;;;;23.05;67.93;99394.16;4995281;28;879;-63
2022/07/06 18:58:09;;;;;;;;;;;;;;;22.97;68.39;99405.06;4995198;28;870;-63
2022/07/06 19:00:35;;;;;;;;;;;;;;;23.02;68.22;99400.78;4995437;28;787;-63
2022/07/06 19:03:02;;;;;;;;;;;;;;;23.24;67.31;99392.53;4995455;28;815;-63
2022/07/06 19:05:29;;;;;;;;;;;;;;;23.43;66.25;99395.00;4995116;28;890;-63
2022/07/06 19:07:55;;;;;;;;;;;;;;;23.47;66.05;99403.19;4995062;28;795;-63
2022/07/06 19:10:22;;;;;;;;;;;;;;;23.42;66.17;99393.44;4995119;28;850;-63
2022/07/06 19:12:50;;;;;;;;;;;;;;;23.22;66.97;99403.53;4994944;28;796;-63
2022/07/06 19:15:17;;;;;;;;;;;;;;;23.06;67.46;99406.97;4977498;28;1205;-63
2022/07/06 19:17:45;;;;;;;;;;;;;;;23.01;67.82;99394.38;4994844;28;847;-63
2022/07/06 19:20:23;;;;;;;;;;;;;;;23.11;67.43;99405.47;4994771;28;862;-62
2022/07/06 19:22:49;;;;;;;;;;;;;;;23.29;66.37;99395.91;4994606;28;803;-63
2022/07/06 19:25:17;;;;;;;;;;;;;;;23.31;66.44;99399.75;4994595;28;863;-63
2022/07/06 19:30:46;;;;;;;;;;;;;;;23.24;66.41;99403.03;4994618;28;1955;-62
2022/07/06 19:33:13;;;;;;;;;;;;;;;23.20;66.75;99405.31;4995022;28;938;-63
2022/07/06 19:35:39;;;;;;;;;;;;;;;23.19;66.98;99401.72;5009449;28;1374;-63
2022/07/06 19:38:18;;;;;;;;;;;;;;;23.36;66.06;99392.63;5014038;28;822;-63
2022/07/06 19:40:54;;;;;;;;;;;;;;;23.57;65.09;99396.88;4996332;28;1910;-62
2022/07/06 19:43:35;;;;;;;;;;;;;;;23.54;65.25;99394.31;4996359;28;1220;-63
2022/07/06 19:49:03;;;;;;;;;;;;;;;23.37;65.82;99391.34;5013960;28;666;-63
2022/07/06 19:51:29;;;;;;;;;;;;;;;23.31;65.91;99387.72;5013969;28;799;-63
2022/07/06 19:53:56;;;;;;;;;;;;;;;23.29;66.09;99393.09;5013741;28;814;-63
2022/07/06 19:56:29;;;;;;;;;;;;;;;23.31;65.69;99385.66;5013746;28;810;-63
2022/07/06 19:58:57;;;;;;;;;;;;;;;23.35;65.74;99389.03;4996098;28;1181;-62
2022/07/06 20:01:25;;;;;;;;;;;;;;;23.37;65.56;99388.53;4995937;28;1977;-62
2022/07/06 20:03:52;;;;;;;;;;;;;;;23.35;65.62;99388.25;4995458;28;1306;-63
2022/07/06 20:09:22;;;;;;;;;;;;;;;23.31;66.12;99382.06;5013577;28;621;-62
2022/07/06 20:11:49;;;;;;;;;;;;;;;23.32;65.99;99380.78;5013443;28;857;-62
2022/07/06 20:26:27;;;;;;;;;;;;;;;23.29;66.52;99376.16;5013467;28;672;-63
2022/07/06 20:28:53;;;;;;;;;;;;;;;23.24;66.63;99377.69;5013208;28;826;-63
2022/07/06 20:31:19;;;;;;;;;;;;;;;23.23;66.60;99374.06;5012996;28;925;-62
2022/07/06 20:33:45;;;;;;;;;;;;;;;23.16;67.19;99370.94;5013319;28;803;-63
2022/07/06 20:36:13;;;;;;;;;;;;;;;23.14;67.45;99368.63;5012730;28;1442;-63
2022/07/06 20:41:42;;;;;;;;;;;;;;;23.06;68.00;99366.75;5013011;28;1981;-61
2022/07/06 20:44:09;;;;;;;;;;;;;;;23.16;67.50;99357.63;5012980;28;791;-65
2022/07/06 20:49:38;;;;;;;;;;;;;;;23.31;66.66;99373.63;5012793;28;657;-64
2022/07/06 20:52:04;;;;;;;;;;;;;;;23.32;66.29;99355.41;5012574;28;827;-63
2022/07/06 20:54:31;;;;;;;;;;;;;;;23.32;66.24;99367.50;5012960;28;862;-63
2022/07/06 20:56:58;;;;;;;;;;;;;;;23.33;66.18;99362.63;4994969;28;1296;-64
2022/07/06 20:59:25;;;;;;;;;;;;;;;23.31;66.58;99362.34;5012538;28;835;-63
2022/07/06 21:01:59;;;;;;;;;;;;;;;23.25;66.92;99367.94;5012420;28;1944;-64
2022/07/06 21:04:25;;;;;;;;;;;;;;;23.17;67.30;99367.63;5012735;28;527;-63
2022/07/06 21:06:52;;;;;;;;;;;;;;;23.16;67.14;99354.78;4994839;28;1304;-62
2022/07/06 21:09:26;;;;;;;;;;;;;;;23.23;67.34;99370.47;4995201;28;1335;-64
2022/07/06 21:11:53;;;;;;;;;;;;;;;23.18;67.20;99366.34;5012351;28;858;-64
2022/07/06 21:14:19;;;;;;;;;;;;;;;23.15;67.40;99367.34;5012458;28;803;-63
2022/07/06 21:16:46;;;;;;;;;;;;;;;23.10;67.86;99375.75;4994433;28;1213;-63
2022/07/06 21:19:13;;;;;;;;;;;;;;;23.06;68.17;99378.03;5012210;28;831;-63
2022/07/06 21:21:39;;;;;;;;;;;;;;;22.97;68.61;99382.53;4992323;28;1945;-63
2022/07/06 21:24:07;;;;;;;;;;;;;;;22.86;69.55;99382.44;5012155;28;843;-63
2022/07/06 21:26:35;;;;;;;;;;;;;;;22.84;69.44;99376.53;5012067;28;879;-64
2022/07/06 21:29:02;;;;;;;;;;;;;;;22.88;69.47;99379.13;5012236;28;901;-63
2022/07/06 21:31:29;;;;;;;;;;;;;;;22.89;69.61;99380.66;4994449;28;1161;-63
2022/07/06 21:33:56;;;;;;;;;;;;;;;22.80;70.19;99375.97;5011785;28;1406;-63
2022/07/06 21:48:34;;;;;;;;;;;;;;;22.99;68.31;99374.34;5012272;28;629;-62
2022/07/06 21:51:01;;;;;;;;;;;;;;;23.03;67.64;99380.56;5011750;28;861;-63
2022/07/06 21:53:27;;;;;;;;;;;;;;;23.11;66.90;99380.09;4994187;28;1315;-63
2022/07/06 21:55:54;;;;;;;;;;;;;;;23.15;66.37;99380.66;5011972;28;819;-64
2022/07/06 21:58:58;;;;;;;;;;;;;;;23.18;65.56;99368.41;5011860;28;791;-64
2022/07/06 22:01:30;;;;;;;;;;;;;;;23.19;65.31;99364.28;5011699;28;1894;-61